createdAt,value
2023-02-16T00:02:10.793Z,16.67
2023-02-16T00:04:37.963Z,16.76
2023-02-16T00:07:06.088Z,16.75
2023-02-16T00:09:33.157Z,16.83
2023-02-16T00:12:00.253Z,16.80
2023-02-16T00:14:28.006Z,16.69
2023-02-16T00:16:55.567Z,16.69
2023-02-16T00:19:24.585Z,16.88
2023-02-16T00:21:53.656Z,16.90
2023-02-16T00:24:23.119Z,16.89
2023-02-16T00:26:50.575Z,16.78
2023-02-16T00:29:20.841Z,16.92
2023-02-16T00:31:48.100Z,16.84
2023-02-16T00:34:30.857Z,16.84
2023-02-16T00:36:59.362Z,16.91
2023-02-16T00:39:28.115Z,16.85
2023-02-16T00:41:57.914Z,16.88
2023-02-16T00:44:31.052Z,16.82
2023-02-16T00:47:01.555Z,16.69
2023-02-16T00:49:28.652Z,16.69
2023-02-16T00:51:57.388Z,16.89
2023-02-16T00:54:24.246Z,16.72
2023-02-16T00:56:53.499Z,16.83
2023-02-16T00:59:23.222Z,16.88
2023-02-16T01:01:50.487Z,16.82
2023-02-16T01:04:20.688Z,16.89
2023-02-16T01:06:47.397Z,16.90
2023-02-16T01:09:17.292Z,16.98
2023-02-16T01:11:44.143Z,16.82
2023-02-16T01:14:13.797Z,16.35
2023-02-16T01:16:43.353Z,16.75
2023-02-16T01:19:11.815Z,16.62
2023-02-16T01:21:38.728Z,16.77
2023-02-16T01:24:06.711Z,16.90
2023-02-16T01:26:38.639Z,16.71
2023-02-16T01:29:05.404Z,16.73
2023-02-16T01:31:33.584Z,16.76
2023-02-16T01:34:00.430Z,16.79
2023-02-16T01:36:31.685Z,16.71
2023-02-16T01:38:58.563Z,16.71
2023-02-16T01:41:45.437Z,16.71
2023-02-16T01:44:16.531Z,16.43
2023-02-16T01:46:51.962Z,16.35
2023-02-16T01:49:20.495Z,16.34
2023-02-16T01:51:56.771Z,16.30
2023-02-16T01:54:39.092Z,16.03
2023-02-16T01:57:21.459Z,15.91
2023-02-16T02:00:15.138Z,15.87
2023-02-16T02:02:47.010Z,15.86
2023-02-16T02:05:27.790Z,15.76
2023-02-16T02:08:00.004Z,15.78
2023-02-16T02:10:34.988Z,15.79
2023-02-16T02:13:08.131Z,15.68
2023-02-16T02:15:35.599Z,15.78
2023-02-16T02:18:04.246Z,15.63
2023-02-16T02:20:46.838Z,15.68
2023-02-16T02:23:30.726Z,15.76
2023-02-16T02:26:45.004Z,15.64
2023-02-16T02:29:39.020Z,15.54
2023-02-16T02:32:17.817Z,15.62
2023-02-16T02:35:00.067Z,15.62
2023-02-16T02:37:36.770Z,15.81
2023-02-16T02:40:12.038Z,15.77
2023-02-16T02:42:44.386Z,15.85
2023-02-16T02:45:18.724Z,15.90
2023-02-16T02:47:48.198Z,15.84
2023-02-16T02:50:56.028Z,15.98
2023-02-16T02:53:23.161Z,15.94
2023-02-16T02:55:51.772Z,15.93
2023-02-16T02:58:22.905Z,15.76
2023-02-16T03:00:53.042Z,16.00
2023-02-16T03:03:24.318Z,15.86
2023-02-16T03:05:55.633Z,15.82
2023-02-16T03:08:27.101Z,15.78
2023-02-16T03:10:58.506Z,15.72
2023-02-16T03:13:30.505Z,15.60
2023-02-16T03:16:03.206Z,15.38
2023-02-16T03:18:34.170Z,15.27
2023-02-16T03:21:03.281Z,15.13
2023-02-16T03:23:31.162Z,15.33
2023-02-16T03:25:57.863Z,15.45
2023-02-16T03:28:28.779Z,15.21
2023-02-16T03:30:56.907Z,15.33
2023-02-16T03:33:26.099Z,15.24
2023-02-16T03:35:53.851Z,15.28
2023-02-16T03:38:22.526Z,15.34
2023-02-16T03:40:52.233Z,15.20
2023-02-16T03:43:19.371Z,15.28
2023-02-16T03:45:46.232Z,15.42
2023-02-16T03:48:14.435Z,15.42
2023-02-16T03:50:42.862Z,15.39
2023-02-16T03:53:09.704Z,15.18
2023-02-16T03:55:38.555Z,15.33
2023-02-16T03:58:06.923Z,15.29
2023-02-16T04:00:35.432Z,15.38
2023-02-16T04:03:02.992Z,15.28
2023-02-16T04:05:30.201Z,15.27
2023-02-16T04:07:58.768Z,15.24
2023-02-16T04:10:25.701Z,15.22
2023-02-16T04:12:52.610Z,15.05
2023-02-16T04:15:21.539Z,14.94
2023-02-16T04:17:49.078Z,14.82
2023-02-16T04:20:18.038Z,14.90
2023-02-16T04:22:45.579Z,14.90
2023-02-16T04:25:15.967Z,14.99
2023-02-16T04:27:44.838Z,14.91
2023-02-16T04:30:14.625Z,14.96
2023-02-16T04:32:41.532Z,15.18
2023-02-16T04:35:08.937Z,15.19
2023-02-16T04:37:36.124Z,14.61
2023-02-16T04:40:04.006Z,14.84
2023-02-16T04:42:32.519Z,14.83
2023-02-16T04:44:59.391Z,14.90
2023-02-16T04:47:26.548Z,15.11
2023-02-16T04:49:53.879Z,15.12
2023-02-16T04:52:20.790Z,15.02
2023-02-16T04:54:47.892Z,14.81
2023-02-16T04:57:15.156Z,14.77
2023-02-16T04:59:43.856Z,14.78
2023-02-16T05:02:11.135Z,14.84
2023-02-16T05:04:38.329Z,14.71
2023-02-16T05:07:05.569Z,14.87
2023-02-16T05:09:32.713Z,14.66
2023-02-16T05:11:59.597Z,14.85
2023-02-16T05:14:28.798Z,14.75
2023-02-16T05:16:57.572Z,14.52
2023-02-16T05:19:24.701Z,14.36
2023-02-16T05:21:51.495Z,14.55
2023-02-16T05:24:18.406Z,14.81
2023-02-16T05:26:45.789Z,14.80
2023-02-16T05:29:12.715Z,14.57
2023-02-16T05:31:39.933Z,14.56
2023-02-16T05:34:08.576Z,14.71
2023-02-16T05:36:35.485Z,14.88
2023-02-16T05:39:02.557Z,14.81
2023-02-16T05:41:29.384Z,14.86
2023-02-16T05:43:58.692Z,14.90
2023-02-16T05:46:26.812Z,15.00
2023-02-16T05:48:53.908Z,15.33
2023-02-16T05:51:22.290Z,15.40
2023-02-16T05:53:49.170Z,15.50
2023-02-16T05:56:17.800Z,15.38
2023-02-16T05:58:45.499Z,15.09
2023-02-16T06:01:12.746Z,15.05
2023-02-16T06:03:39.868Z,15.28
2023-02-16T06:06:09.110Z,15.33
2023-02-16T06:08:38.373Z,15.32
2023-02-16T06:11:06.449Z,15.11
2023-02-16T06:13:34.239Z,15.02
2023-02-16T06:16:01.090Z,15.46
2023-02-16T06:18:28.232Z,15.43
2023-02-16T06:20:57.232Z,15.57
2023-02-16T06:23:24.143Z,15.70
2023-02-16T06:25:52.859Z,15.54
2023-02-16T06:28:21.111Z,15.66
2023-02-16T06:30:48.192Z,15.73
2023-02-16T06:33:15.044Z,15.86
2023-02-16T06:35:41.842Z,15.69
2023-02-16T06:38:09.029Z,15.90
2023-02-16T06:40:35.859Z,15.96
2023-02-16T06:43:04.820Z,16.07
2023-02-16T06:45:31.900Z,16.06
2023-02-16T06:47:58.688Z,15.74
2023-02-16T06:50:25.797Z,15.88
2023-02-16T06:52:52.715Z,15.96
2023-02-16T06:55:19.530Z,15.96
2023-02-16T06:57:46.405Z,16.05
2023-02-16T07:00:16.933Z,16.10
2023-02-16T07:02:44.064Z,16.15
2023-02-16T07:05:10.884Z,16.28
2023-02-16T07:07:37.704Z,16.31
2023-02-16T07:10:05.029Z,16.28
2023-02-16T07:12:32.097Z,16.33
2023-02-16T07:14:59.367Z,16.31
2023-02-16T07:17:27.819Z,16.28
2023-02-16T07:19:54.534Z,16.34
2023-02-16T07:22:21.983Z,16.27
2023-02-16T07:24:49.024Z,16.25
2023-02-16T07:27:16.465Z,16.32
2023-02-16T07:29:43.526Z,16.27
2023-02-16T07:32:10.404Z,16.31
2023-02-16T07:34:39.691Z,16.41
2023-02-16T07:37:06.468Z,16.50
2023-02-16T07:39:33.191Z,16.54
2023-02-16T07:41:59.890Z,16.39
2023-02-16T07:44:27.072Z,16.34
2023-02-16T07:46:54.202Z,16.42
2023-02-16T07:49:21.314Z,16.44
2023-02-16T07:51:49.623Z,16.55
2023-02-16T07:54:16.805Z,16.59
2023-02-16T07:56:44.003Z,16.55
2023-02-16T07:59:10.857Z,16.67
2023-02-16T08:01:38.273Z,16.58
2023-02-16T08:04:05.542Z,16.62
2023-02-16T08:06:34.578Z,16.62
2023-02-16T08:09:03.800Z,16.61
2023-02-16T08:11:31.799Z,16.92
2023-02-16T08:13:59.430Z,16.94
2023-02-16T08:16:28.501Z,17.06
2023-02-16T08:18:57.283Z,17.08
2023-02-16T08:21:26.634Z,17.06
2023-02-16T08:23:55.720Z,17.12
2023-02-16T08:26:27.142Z,17.20
2023-02-16T08:28:54.497Z,17.26
2023-02-16T08:31:24.493Z,17.34
2023-02-16T08:33:52.659Z,17.50
2023-02-16T08:36:21.053Z,17.45
2023-02-16T08:38:48.774Z,17.71
2023-02-16T08:41:15.689Z,17.81
2023-02-16T08:43:44.307Z,17.91
2023-02-16T08:46:11.148Z,18.01
2023-02-16T08:48:38.069Z,18.06
2023-02-16T08:51:05.207Z,17.98
2023-02-16T08:53:32.638Z,17.99
2023-02-16T08:56:00.494Z,18.01
2023-02-16T08:58:27.620Z,18.07
2023-02-16T09:00:55.834Z,18.17
2023-02-16T09:03:22.979Z,18.18
2023-02-16T09:05:52.154Z,18.27
2023-02-16T09:08:19.359Z,18.55
2023-02-16T09:10:46.293Z,18.62
2023-02-16T09:13:13.079Z,18.64
2023-02-16T09:15:40.186Z,18.61
2023-02-16T09:18:08.977Z,18.62
2023-02-16T09:20:37.335Z,18.73
2023-02-16T09:23:04.144Z,18.60
2023-02-16T09:25:30.948Z,18.59
2023-02-16T09:27:57.782Z,18.81
2023-02-16T09:30:24.999Z,18.63
2023-02-16T09:32:51.946Z,18.37
2023-02-16T09:35:20.742Z,18.52
2023-02-16T09:37:47.727Z,18.68
2023-02-16T09:40:14.775Z,18.65
2023-02-16T09:42:59.870Z,18.72
2023-02-16T09:45:27.950Z,18.74
2023-02-16T09:47:57.820Z,18.85
2023-02-16T09:50:53.898Z,18.84
2023-02-16T09:53:23.807Z,19.05
2023-02-16T09:55:58.348Z,19.09
2023-02-16T09:58:33.309Z,19.04
2023-02-16T10:01:08.162Z,19.19
2023-02-16T10:03:54.528Z,19.13
2023-02-16T10:14:48.633Z,19.34
2023-02-16T10:17:23.990Z,18.98
2023-02-16T10:19:56.126Z,19.28
2023-02-16T10:22:31.808Z,19.37
2023-02-16T10:25:02.589Z,19.45
2023-02-16T10:27:37.613Z,19.37
2023-02-16T10:30:13.342Z,19.44
2023-02-16T10:32:53.971Z,19.41
2023-02-16T10:35:29.826Z,19.45
2023-02-16T10:38:07.292Z,19.35
2023-02-16T10:40:45.641Z,19.59
2023-02-16T10:43:18.362Z,19.74
2023-02-16T10:45:52.522Z,19.95
2023-02-16T10:48:21.659Z,19.86
2023-02-16T10:50:57.113Z,19.79
2023-02-16T10:53:35.521Z,20.04
2023-02-16T10:56:03.103Z,20.15
2023-02-16T10:58:38.701Z,20.27
2023-02-16T11:01:15.580Z,20.25
2023-02-16T11:03:46.169Z,20.47
2023-02-16T11:06:14.919Z,20.65
2023-02-16T11:08:48.372Z,20.65
2023-02-16T11:11:16.808Z,20.83
2023-02-16T11:13:48.376Z,20.73
2023-02-16T11:16:23.378Z,20.73
2023-02-16T11:18:58.436Z,20.71
2023-02-16T11:21:44.216Z,20.90
2023-02-16T11:24:14.308Z,20.78
2023-02-16T11:26:41.383Z,21.00
2023-02-16T11:29:19.991Z,21.20
2023-02-16T11:31:48.721Z,21.41
2023-02-16T11:34:28.945Z,21.70
2023-02-16T11:37:04.286Z,21.90
2023-02-16T11:39:36.311Z,22.11
2023-02-16T11:42:08.226Z,22.07
2023-02-16T11:44:39.122Z,22.20
2023-02-16T11:47:20.560Z,22.27
2023-02-16T11:49:47.718Z,22.00
2023-02-16T11:52:27.518Z,22.22
2023-02-16T11:54:58.715Z,21.85
2023-02-16T11:57:27.529Z,22.12
2023-02-16T11:59:55.858Z,22.09
2023-02-16T12:02:45.864Z,21.97
2023-02-16T12:05:24.893Z,21.67
2023-02-16T12:08:12.360Z,21.58
2023-02-16T12:10:49.657Z,21.47
2023-02-16T12:13:26.545Z,21.16
2023-02-16T12:16:02.015Z,21.32
2023-02-16T12:18:43.711Z,21.42
2023-02-16T12:21:20.417Z,21.50
2023-02-16T12:23:58.943Z,21.82
2023-02-16T12:26:40.191Z,21.88
2023-02-16T12:29:22.462Z,21.80
2023-02-16T12:32:05.775Z,21.74
2023-02-16T12:34:52.394Z,21.82
2023-02-16T12:37:26.047Z,21.90
2023-02-16T12:40:03.354Z,21.98
2023-02-16T12:42:49.268Z,22.00
2023-02-16T12:45:19.807Z,22.06
2023-02-16T12:47:52.638Z,22.11
2023-02-16T12:50:24.376Z,22.20
2023-02-16T12:52:57.079Z,22.25
2023-02-16T12:55:29.628Z,22.24
2023-02-16T12:58:04.228Z,21.89
2023-02-16T13:00:41.755Z,21.89
2023-02-16T13:03:21.273Z,21.61
2023-02-16T13:05:59.917Z,21.60
2023-02-16T13:08:33.944Z,21.59
2023-02-16T13:11:08.579Z,21.13
2023-02-16T13:13:36.861Z,21.27
2023-02-16T13:16:27.493Z,21.35
2023-02-16T13:18:56.332Z,21.12
2023-02-16T13:21:50.894Z,20.70
2023-02-16T13:24:30.600Z,20.53
2023-02-16T13:27:11.023Z,21.13
2023-02-16T13:29:53.580Z,21.54
2023-02-16T13:32:41.564Z,21.53
2023-02-16T13:35:28.337Z,21.59
2023-02-16T13:38:05.410Z,21.49
2023-02-16T13:41:13.892Z,21.41
2023-02-16T13:43:43.336Z,21.39
2023-02-16T13:46:17.145Z,21.49
2023-02-16T13:48:47.941Z,21.37
2023-02-16T13:51:18.462Z,21.62
2023-02-16T13:53:55.014Z,21.57
2023-02-16T13:56:33.329Z,21.97
2023-02-16T13:59:28.778Z,22.29
2023-02-16T14:01:57.109Z,22.42
2023-02-16T14:05:02.359Z,22.00
2023-02-16T14:07:34.496Z,21.68
2023-02-16T14:10:03.116Z,21.84
2023-02-16T14:12:31.994Z,21.60
2023-02-16T14:15:02.616Z,21.61
2023-02-16T14:17:34.176Z,21.63
2023-02-16T14:20:04.274Z,21.43
2023-02-16T14:22:40.487Z,21.79
2023-02-16T14:25:39.155Z,21.88
2023-02-16T14:28:22.055Z,21.66
2023-02-16T14:30:53.034Z,22.06
2023-02-16T14:33:27.211Z,22.25
2023-02-16T14:36:14.594Z,22.30
2023-02-16T14:38:46.331Z,21.83
2023-02-16T14:41:26.710Z,21.72
2023-02-16T14:43:58.934Z,21.86
2023-02-16T14:46:45.313Z,21.82
2023-02-16T14:49:49.803Z,22.20
2023-02-16T14:52:51.146Z,22.15
2023-02-16T14:55:43.999Z,22.17
2023-02-16T14:58:26.233Z,22.02
2023-02-16T15:00:57.880Z,22.09
2023-02-16T15:03:26.847Z,21.90
2023-02-16T15:05:57.290Z,21.75
2023-02-16T15:08:28.088Z,21.67
2023-02-16T15:10:54.930Z,22.23
2023-02-16T15:13:27.115Z,22.67
2023-02-16T15:15:56.418Z,22.56
2023-02-16T15:18:27.332Z,22.81
2023-02-16T15:20:56.132Z,23.27
2023-02-16T15:23:25.370Z,23.13
2023-02-16T15:25:55.556Z,22.61
2023-02-16T15:28:26.361Z,22.49
2023-02-16T15:30:56.651Z,22.47
2023-02-16T15:33:33.098Z,22.23
2023-02-16T15:36:02.805Z,22.16
2023-02-16T15:38:31.948Z,22.18
2023-02-16T15:41:01.153Z,22.13
2023-02-16T15:43:34.459Z,22.10
2023-02-16T15:46:03.782Z,22.04
2023-02-16T15:48:32.897Z,21.77
2023-02-16T15:51:11.758Z,21.67
2023-02-16T15:53:50.041Z,21.40
2023-02-16T15:56:27.832Z,21.83
2023-02-16T15:58:58.601Z,21.69
2023-02-16T16:01:31.861Z,21.83
2023-02-16T16:04:05.128Z,21.94
2023-02-16T16:06:34.743Z,21.73
2023-02-16T16:09:02.365Z,21.56
2023-02-16T16:11:29.603Z,21.51
2023-02-16T16:13:58.139Z,21.57
2023-02-16T16:16:25.112Z,21.83
2023-02-16T16:18:53.776Z,21.85
2023-02-16T16:21:24.997Z,21.73
2023-02-16T16:23:58.256Z,21.82
2023-02-16T16:26:26.970Z,21.56
2023-02-16T16:28:54.606Z,21.45
2023-02-16T16:31:42.166Z,21.30
2023-02-16T16:34:30.088Z,20.97
2023-02-16T16:36:59.193Z,20.85
2023-02-16T16:39:28.735Z,20.70
2023-02-16T16:42:20.840Z,20.45
2023-02-16T16:44:57.184Z,20.28
2023-02-16T16:47:29.542Z,20.23
2023-02-16T16:49:58.704Z,20.27
2023-02-16T16:52:37.607Z,20.30
2023-02-16T16:55:31.133Z,20.30
2023-02-16T16:57:59.949Z,20.16
2023-02-16T17:00:29.464Z,20.23
2023-02-16T17:02:59.280Z,20.23
2023-02-16T17:05:26.181Z,20.32
2023-02-16T17:07:53.071Z,20.40
2023-02-16T17:10:22.006Z,20.48
2023-02-16T17:12:52.844Z,20.42
2023-02-16T17:15:34.799Z,20.44
2023-02-16T17:18:05.236Z,20.36
2023-02-16T17:20:32.136Z,20.29
2023-02-16T17:22:59.032Z,20.20
2023-02-16T17:25:26.208Z,20.25
2023-02-16T17:27:52.962Z,20.25
2023-02-16T17:30:20.297Z,20.11
2023-02-16T17:32:47.469Z,20.06
2023-02-16T17:35:15.750Z,20.13
2023-02-16T17:37:42.468Z,20.01
2023-02-16T17:40:12.860Z,20.08
2023-02-16T17:42:39.665Z,20.02
2023-02-16T17:45:06.744Z,19.90
2023-02-16T17:47:34.104Z,20.05
2023-02-16T17:50:01.475Z,19.96
2023-02-16T17:52:30.376Z,20.18
2023-02-16T17:54:57.565Z,20.13
2023-02-16T17:57:24.471Z,19.85
2023-02-16T17:59:51.578Z,19.98
2023-02-16T18:02:18.475Z,19.93
2023-02-16T18:04:45.314Z,19.89
2023-02-16T18:07:12.545Z,20.06
2023-02-16T18:09:41.099Z,20.03
2023-02-16T18:12:09.317Z,19.95
2023-02-16T18:14:38.109Z,19.79
2023-02-16T18:17:05.827Z,19.62
2023-02-16T18:19:33.828Z,19.67
2023-02-16T18:22:01.203Z,19.74
2023-02-16T18:24:28.068Z,19.77
2023-02-16T18:26:56.489Z,19.82
2023-02-16T18:29:23.571Z,19.72
2023-02-16T18:31:50.474Z,19.63
2023-02-16T18:34:17.265Z,19.78
2023-02-16T18:36:44.351Z,19.76
2023-02-16T18:39:11.666Z,19.69
2023-02-16T18:41:38.594Z,19.52
2023-02-16T18:44:07.592Z,19.70
2023-02-16T18:46:34.511Z,19.49
2023-02-16T18:49:03.296Z,19.53
2023-02-16T18:51:32.155Z,19.68
2023-02-16T18:53:59.225Z,19.79
2023-02-16T18:56:26.115Z,19.72
2023-02-16T18:58:52.894Z,19.84
2023-02-16T19:01:28.404Z,19.41
2023-02-16T19:03:55.253Z,19.43
2023-02-16T19:06:22.438Z,18.94
2023-02-16T19:08:49.323Z,19.04
2023-02-16T19:11:16.024Z,19.50
2023-02-16T19:13:43.766Z,19.54
2023-02-16T19:16:11.763Z,19.42
2023-02-16T19:18:40.291Z,19.58
2023-02-16T19:21:08.670Z,19.55
2023-02-16T19:23:35.614Z,19.47
2023-02-16T19:26:05.789Z,19.28
2023-02-16T19:28:33.217Z,19.20
2023-02-16T19:31:01.634Z,18.94
2023-02-16T19:33:28.517Z,19.26
2023-02-16T19:36:02.784Z,19.44
2023-02-16T19:38:30.117Z,19.15
2023-02-16T19:40:57.484Z,19.22
2023-02-16T19:43:24.601Z,19.12
2023-02-16T19:45:52.076Z,19.27
2023-02-16T19:48:19.117Z,19.05
2023-02-16T19:50:46.271Z,19.22
2023-02-16T19:53:14.698Z,19.28
2023-02-16T19:55:42.236Z,19.36
2023-02-16T19:58:09.291Z,19.31
2023-02-16T20:00:36.926Z,19.45
2023-02-16T20:03:04.435Z,19.45
2023-02-16T20:05:31.809Z,19.33
2023-02-16T20:07:59.076Z,19.16
2023-02-16T20:10:28.553Z,19.16
2023-02-16T20:12:55.750Z,19.17
2023-02-16T20:15:22.526Z,18.67
2023-02-16T20:17:49.244Z,18.96
2023-02-16T20:20:16.094Z,19.04
2023-02-16T20:22:43.091Z,19.20
2023-02-16T20:25:10.784Z,18.90
2023-02-16T20:27:39.770Z,18.74
2023-02-16T20:30:11.956Z,19.05
2023-02-16T20:32:38.942Z,19.18
2023-02-16T20:35:07.331Z,19.02
2023-02-16T20:37:34.685Z,19.09
2023-02-16T20:40:02.499Z,19.25
2023-02-16T20:42:29.356Z,19.32
2023-02-16T20:44:57.907Z,19.44
2023-02-16T20:47:24.804Z,19.66
2023-02-16T20:49:51.619Z,19.70
2023-02-16T20:52:18.747Z,19.60
2023-02-16T20:54:45.590Z,19.70
2023-02-16T20:57:24.967Z,19.73
2023-02-16T20:59:53.145Z,19.80
2023-02-16T21:02:21.579Z,19.75
2023-02-16T21:04:48.378Z,19.88
2023-02-16T21:07:15.237Z,20.00
2023-02-16T21:09:42.444Z,19.94
2023-02-16T21:12:09.250Z,19.93
2023-02-16T21:14:37.697Z,19.83
2023-02-16T21:17:04.633Z,20.00
2023-02-16T21:19:33.094Z,19.98
2023-02-16T21:22:00.252Z,19.41
2023-02-16T21:24:27.300Z,19.34
2023-02-16T21:26:54.074Z,19.13
2023-02-16T21:29:21.133Z,19.15
2023-02-16T21:31:48.555Z,19.04
2023-02-16T21:34:15.450Z,19.32
2023-02-16T21:36:44.178Z,19.16
2023-02-16T21:39:11.360Z,19.47
2023-02-16T21:41:38.442Z,19.50
2023-02-16T21:44:06.815Z,19.49
2023-02-16T21:46:36.862Z,19.45
2023-02-16T21:49:04.094Z,19.65
2023-02-16T21:51:34.715Z,19.62
2023-02-16T21:54:06.090Z,19.68
2023-02-16T21:56:36.066Z,19.72
2023-02-16T21:59:04.419Z,19.84
2023-02-16T22:01:33.819Z,19.93
2023-02-16T22:04:02.141Z,19.98
2023-02-16T22:06:31.496Z,19.78
2023-02-16T22:08:59.418Z,19.72
2023-02-16T22:11:28.065Z,19.92
2023-02-16T22:13:56.261Z,20.01
2023-02-16T22:16:24.165Z,19.66
2023-02-16T22:18:56.602Z,19.81
2023-02-16T22:21:23.517Z,19.95
2023-02-16T22:23:50.619Z,19.59
2023-02-16T22:26:22.007Z,19.77
2023-02-16T22:28:50.517Z,19.52
2023-02-16T22:31:19.457Z,19.54
2023-02-16T22:33:46.291Z,19.64
2023-02-16T22:36:13.951Z,19.40
2023-02-16T22:38:41.318Z,19.34
2023-02-16T22:41:09.070Z,19.67
2023-02-16T22:43:36.944Z,19.64
2023-02-16T22:46:13.785Z,19.84
2023-02-16T22:48:41.181Z,20.02
2023-02-16T22:51:13.932Z,20.07
2023-02-16T22:53:41.634Z,20.02
2023-02-16T22:56:11.948Z,19.79
2023-02-16T22:58:38.848Z,20.02
2023-02-16T23:01:13.192Z,19.80
2023-02-16T23:03:40.506Z,20.00
2023-02-16T23:06:12.859Z,20.23
2023-02-16T23:08:39.764Z,20.14
2023-02-16T23:11:06.751Z,19.69
2023-02-16T23:13:35.705Z,19.98
2023-02-16T23:16:06.717Z,19.77
2023-02-16T23:18:35.376Z,20.03
2023-02-16T23:21:07.620Z,20.03
2023-02-16T23:23:34.781Z,20.05
2023-02-16T23:26:01.954Z,20.00
2023-02-16T23:28:28.857Z,20.15
2023-02-16T23:30:57.139Z,20.25
2023-02-16T23:33:24.833Z,20.09
2023-02-16T23:35:53.515Z,20.06
2023-02-16T23:38:21.032Z,19.85
2023-02-16T23:40:55.489Z,19.80
2023-02-16T23:43:22.332Z,19.81
2023-02-16T23:45:49.352Z,19.75
2023-02-16T23:48:16.280Z,19.45
2023-02-16T23:50:43.352Z,19.44
2023-02-16T23:53:12.282Z,19.67
2023-02-16T23:55:39.128Z,19.75
2023-02-16T23:58:06.005Z,19.82
